sensor_id;sensor_type;location;lat;lon;timestamp;pressure;altitude;pressure_sealevel;temperature;humidity
60583;BME280;46415;47.536;19.066;2023-02-10T00:00:12;102620.94;;;-5.71;100.00
60583;BME280;46415;47.536;19.066;2023-02-10T00:03:15;102626.28;;;-5.67;100.00
60583;BME280;46415;47.536;19.066;2023-02-10T00:06:19;102628.47;;;-5.73;100.00
60583;BME280;46415;47.536;19.066;2023-02-10T00:09:23;102630.22;;;-5.72;100.00
60583;BME280;46415;47.536;19.066;2023-02-10T00:12:25;102620.25;;;-5.69;100.00
60583;BME280;46415;47.536;19.066;2023-02-10T00:15:28;102622.16;;;-5.65;100.00
60583;BME280;46415;47.536;19.066;2023-02-10T00:18:32;102628.38;;;-5.74;100.00
60583;BME280;46415;47.536;19.066;2023-02-10T00:21:35;102635.22;;;-5.87;100.00
60583;BME280;46415;47.536;19.066;2023-02-10T00:24:38;102619.53;;;-5.96;100.00
60583;BME280;46415;47.536;19.066;2023-02-10T00:27:40;102627.22;;;-5.94;100.00
60583;BME280;46415;47.536;19.066;2023-02-10T00:30:43;102628.97;;;-5.93;100.00
60583;BME280;46415;47.536;19.066;2023-02-10T00:33:46;102624.13;;;-5.90;100.00
60583;BME280;46415;47.536;19.066;2023-02-10T00:36:49;102629.50;;;-5.84;100.00
60583;BME280;46415;47.536;19.066;2023-02-10T00:39:53;102631.78;;;-5.74;100.00
60583;BME280;46415;47.536;19.066;2023-02-10T00:42:57;102631.69;;;-5.90;100.00
60583;BME280;46415;47.536;19.066;2023-02-10T00:46:00;102631.13;;;-5.99;100.00
60583;BME280;46415;47.536;19.066;2023-02-10T00:49:03;102627.22;;;-6.09;100.00
60583;BME280;46415;47.536;19.066;2023-02-10T00:52:06;102630.81;;;-6.19;100.00
60583;BME280;46415;47.536;19.066;2023-02-10T00:55:08;102622.00;;;-6.25;100.00
60583;BME280;46415;47.536;19.066;2023-02-10T00:58:11;102621.16;;;-6.26;100.00
60583;BME280;46415;47.536;19.066;2023-02-10T01:01:14;102623.31;;;-6.32;100.00
60583;BME280;46415;47.536;19.066;2023-02-10T01:04:17;102620.78;;;-6.32;100.00
60583;BME280;46415;47.536;19.066;2023-02-10T01:07:20;102613.97;;;-6.33;100.00
60583;BME280;46415;47.536;19.066;2023-02-10T01:10:22;102613.00;;;-6.35;100.00
60583;BME280;46415;47.536;19.066;2023-02-10T01:13:28;102613.78;;;-6.36;100.00
60583;BME280;46415;47.536;19.066;2023-02-10T01:16:31;102611.25;;;-6.36;100.00
60583;BME280;46415;47.536;19.066;2023-02-10T01:19:34;102607.16;;;-6.34;100.00
60583;BME280;46415;47.536;19.066;2023-02-10T01:22:37;102613.59;;;-6.39;100.00
60583;BME280;46415;47.536;19.066;2023-02-10T01:25:39;102606.28;;;-6.06;100.00
60583;BME280;46415;47.536;19.066;2023-02-10T01:28:43;102607.13;;;-6.21;100.00
60583;BME280;46415;47.536;19.066;2023-02-10T01:31:46;102609.78;;;-6.32;100.00
60583;BME280;46415;47.536;19.066;2023-02-10T01:34:49;102607.34;;;-6.31;100.00
60583;BME280;46415;47.536;19.066;2023-02-10T01:37:52;102614.53;;;-6.37;100.00
60583;BME280;46415;47.536;19.066;2023-02-10T01:40:54;102609.59;;;-6.35;100.00
60583;BME280;46415;47.536;19.066;2023-02-10T01:47:28;102603.75;;;-6.62;100.00
60583;BME280;46415;47.536;19.066;2023-02-10T01:50:37;102604.16;;;-6.69;100.00
60583;BME280;46415;47.536;19.066;2023-02-10T01:53:41;102596.37;;;-6.72;100.00
60583;BME280;46415;47.536;19.066;2023-02-10T01:56:45;102598.53;;;-6.78;100.00
60583;BME280;46415;47.536;19.066;2023-02-10T01:59:49;102595.06;;;-6.80;100.00
60583;BME280;46415;47.536;19.066;2023-02-10T02:02:53;102595.94;;;-6.80;100.00
60583;BME280;46415;47.536;19.066;2023-02-10T02:05:55;102586.31;;;-6.85;100.00
60583;BME280;46415;47.536;19.066;2023-02-10T02:08:58;102598.16;;;-6.84;100.00
60583;BME280;46415;47.536;19.066;2023-02-10T02:15:40;102598.06;;;-6.86;100.00
60583;BME280;46415;47.536;19.066;2023-02-10T02:18:58;102587.66;;;-6.90;100.00
60583;BME280;46415;47.536;19.066;2023-02-10T02:31:57;102597.38;;;-6.83;100.00
60583;BME280;46415;47.536;19.066;2023-02-10T02:35:12;102590.56;;;-6.84;100.00
60583;BME280;46415;47.536;19.066;2023-02-10T02:38:17;102591.84;;;-6.91;100.00
60583;BME280;46415;47.536;19.066;2023-02-10T02:41:24;102589.25;;;-6.92;100.00
60583;BME280;46415;47.536;19.066;2023-02-10T02:44:27;102583.13;;;-6.96;100.00
60583;BME280;46415;47.536;19.066;2023-02-10T02:51:20;102589.03;;;-6.82;100.00
60583;BME280;46415;47.536;19.066;2023-02-10T02:54:38;102592.22;;;-6.85;100.00
60583;BME280;46415;47.536;19.066;2023-02-10T02:57:50;102588.75;;;-6.87;100.00
60583;BME280;46415;47.536;19.066;2023-02-10T03:00:55;102593.59;;;-6.90;100.00
60583;BME280;46415;47.536;19.066;2023-02-10T03:04:07;102590.19;;;-6.90;100.00
60583;BME280;46415;47.536;19.066;2023-02-10T03:07:12;102594.78;;;-6.98;100.00
60583;BME280;46415;47.536;19.066;2023-02-10T03:10:15;102591.94;;;-7.03;100.00
60583;BME280;46415;47.536;19.066;2023-02-10T03:13:17;102589.53;;;-7.01;100.00
60583;BME280;46415;47.536;19.066;2023-02-10T03:16:20;102588.47;;;-7.05;100.00
60583;BME280;46415;47.536;19.066;2023-02-10T03:19:23;102588.47;;;-7.05;100.00
60583;BME280;46415;47.536;19.066;2023-02-10T03:22:26;102583.03;;;-6.97;100.00
60583;BME280;46415;47.536;19.066;2023-02-10T03:25:29;102574.22;;;-7.04;100.00
60583;BME280;46415;47.536;19.066;2023-02-10T03:28:31;102588.09;;;-7.11;100.00
60583;BME280;46415;47.536;19.066;2023-02-10T03:31:34;102584.81;;;-7.10;100.00
60583;BME280;46415;47.536;19.066;2023-02-10T03:34:37;102581.09;;;-7.15;100.00
60583;BME280;46415;47.536;19.066;2023-02-10T03:37:40;102585.84;;;-7.19;100.00
60583;BME280;46415;47.536;19.066;2023-02-10T03:40:43;102581.56;;;-7.20;100.00
60583;BME280;46415;47.536;19.066;2023-02-10T03:43:46;102578.97;;;-7.22;100.00
60583;BME280;46415;47.536;19.066;2023-02-10T03:46:48;102575.47;;;-7.24;100.00
60583;BME280;46415;47.536;19.066;2023-02-10T03:49:51;102572.94;;;-7.24;100.00
60583;BME280;46415;47.536;19.066;2023-02-10T03:52:54;102576.25;;;-7.25;100.00
60583;BME280;46415;47.536;19.066;2023-02-10T03:55:57;102568.41;;;-7.29;100.00
60583;BME280;46415;47.536;19.066;2023-02-10T03:59:01;102559.94;;;-7.30;100.00
60583;BME280;46415;47.536;19.066;2023-02-10T04:02:05;102563.25;;;-7.31;100.00
60583;BME280;46415;47.536;19.066;2023-02-10T04:05:08;102558.19;;;-7.31;100.00
60583;BME280;46415;47.536;19.066;2023-02-10T04:08:10;102551.78;;;-7.26;100.00
60583;BME280;46415;47.536;19.066;2023-02-10T04:11:14;102553.75;;;-7.22;100.00
60583;BME280;46415;47.536;19.066;2023-02-10T04:14:17;102555.28;;;-7.24;100.00
60583;BME280;46415;47.536;19.066;2023-02-10T04:17:20;102551.72;;;-7.27;100.00
60583;BME280;46415;47.536;19.066;2023-02-10T04:20:23;102549.59;;;-7.34;100.00
60583;BME280;46415;47.536;19.066;2023-02-10T04:23:26;102562.75;;;-7.38;100.00
60583;BME280;46415;47.536;19.066;2023-02-10T04:26:29;102563.34;;;-7.43;100.00
60583;BME280;46415;47.536;19.066;2023-02-10T04:29:32;102560.53;;;-7.47;100.00
60583;BME280;46415;47.536;19.066;2023-02-10T04:32:36;102560.16;;;-7.40;100.00
60583;BME280;46415;47.536;19.066;2023-02-10T04:35:39;102571.59;;;-7.32;100.00
60583;BME280;46415;47.536;19.066;2023-02-10T04:38:42;102573.72;;;-7.25;100.00
60583;BME280;46415;47.536;19.066;2023-02-10T04:41:45;102588.69;;;-7.28;100.00
60583;BME280;46415;47.536;19.066;2023-02-10T04:44:48;102585.56;;;-7.37;100.00
60583;BME280;46415;47.536;19.066;2023-02-10T04:47:51;102589.66;;;-7.39;100.00
60583;BME280;46415;47.536;19.066;2023-02-10T04:50:53;102595.63;;;-7.37;100.00
60583;BME280;46415;47.536;19.066;2023-02-10T04:53:56;102591.59;;;-7.35;100.00
60583;BME280;46415;47.536;19.066;2023-02-10T04:56:59;102600.78;;;-7.35;100.00
60583;BME280;46415;47.536;19.066;2023-02-10T05:00:03;102602.25;;;-7.39;100.00
60583;BME280;46415;47.536;19.066;2023-02-10T05:03:06;102602.63;;;-7.46;100.00
60583;BME280;46415;47.536;19.066;2023-02-10T05:06:13;102609.22;;;-7.48;100.00
60583;BME280;46415;47.536;19.066;2023-02-10T05:09:15;102619.13;;;-7.51;100.00
60583;BME280;46415;47.536;19.066;2023-02-10T05:12:18;102615.59;;;-7.53;100.00
60583;BME280;46415;47.536;19.066;2023-02-10T05:15:21;102615.25;;;-7.46;100.00
60583;BME280;46415;47.536;19.066;2023-02-10T05:18:24;102606.81;;;-7.47;100.00
60583;BME280;46415;47.536;19.066;2023-02-10T05:21:27;102609.22;;;-7.48;100.00
60583;BME280;46415;47.536;19.066;2023-02-10T05:24:30;102611.56;;;-7.51;100.00
60583;BME280;46415;47.536;19.066;2023-02-10T05:27:33;102609.03;;;-7.51;100.00
60583;BME280;46415;47.536;19.066;2023-02-10T05:30:36;102608.34;;;-7.49;100.00
60583;BME280;46415;47.536;19.066;2023-02-10T05:33:39;102599.72;;;-7.52;100.00
60583;BME280;46415;47.536;19.066;2023-02-10T05:36:42;102611.56;;;-7.51;100.00
60583;BME280;46415;47.536;19.066;2023-02-10T05:39:46;102612.91;;;-7.43;100.00
60583;BME280;46415;47.536;19.066;2023-02-10T05:42:49;102624.94;;;-7.39;100.00
60583;BME280;46415;47.536;19.066;2023-02-10T05:45:52;102631.13;;;-7.47;100.00
60583;BME280;46415;47.536;19.066;2023-02-10T05:48:55;102619.13;;;-7.51;100.00
60583;BME280;46415;47.536;19.066;2023-02-10T05:51:57;102618.91;;;-7.54;100.00
60583;BME280;46415;47.536;19.066;2023-02-10T05:55:01;102610.34;;;-7.56;100.00
60583;BME280;46415;47.536;19.066;2023-02-10T05:58:03;102614.84;;;-7.52;100.00
60583;BME280;46415;47.536;19.066;2023-02-10T06:01:08;102613.78;;;-7.43;100.00
60583;BME280;46415;47.536;19.066;2023-02-10T06:04:12;102612.13;;;-7.42;100.00
60583;BME280;46415;47.536;19.066;2023-02-10T06:07:15;102620.19;;;-7.34;100.00
60583;BME280;46415;47.536;19.066;2023-02-10T06:10:19;102610.88;;;-7.35;100.00
60583;BME280;46415;47.536;19.066;2023-02-10T06:13:22;102607.09;;;-7.29;100.00
60583;BME280;46415;47.536;19.066;2023-02-10T06:16:25;102613.13;;;-7.27;100.00
60583;BME280;46415;47.536;19.066;2023-02-10T06:19:27;102619.41;;;-7.20;100.00
60583;BME280;46415;47.536;19.066;2023-02-10T06:22:30;102612.34;;;-7.13;100.00
60583;BME280;46415;47.536;19.066;2023-02-10T06:25:33;102625.34;;;-6.93;100.00
60583;BME280;46415;47.536;19.066;2023-02-10T06:28:38;102637.84;;;-6.69;100.00
60583;BME280;46415;47.536;19.066;2023-02-10T06:31:41;102636.75;;;-6.59;100.00
60583;BME280;46415;47.536;19.066;2023-02-10T06:34:44;102645.72;;;-6.64;100.00
60583;BME280;46415;47.536;19.066;2023-02-10T06:37:48;102646.69;;;-6.62;100.00
60583;BME280;46415;47.536;19.066;2023-02-10T06:40:50;102659.09;;;-6.52;100.00
60583;BME280;46415;47.536;19.066;2023-02-10T06:43:53;102670.13;;;-6.37;100.00
60583;BME280;46415;47.536;19.066;2023-02-10T06:46:56;102674.78;;;-6.30;100.00
60583;BME280;46415;47.536;19.066;2023-02-10T06:50:00;102658.44;;;-6.22;100.00
60583;BME280;46415;47.536;19.066;2023-02-10T06:53:03;102668.03;;;-6.16;100.00
60583;BME280;46415;47.536;19.066;2023-02-10T06:56:06;102672.69;;;-6.09;100.00
60583;BME280;46415;47.536;19.066;2023-02-10T06:59:09;102667.13;;;-6.03;100.00
60583;BME280;46415;47.536;19.066;2023-02-10T07:02:12;102665.56;;;-5.87;100.00
60583;BME280;46415;47.536;19.066;2023-02-10T07:05:18;102669.78;;;-5.87;100.00
60583;BME280;46415;47.536;19.066;2023-02-10T07:08:21;102666.44;;;-5.86;100.00
60583;BME280;46415;47.536;19.066;2023-02-10T07:11:24;102673.78;;;-5.76;100.00
60583;BME280;46415;47.536;19.066;2023-02-10T07:14:27;102665.69;;;-5.70;100.00
60583;BME280;46415;47.536;19.066;2023-02-10T07:17:32;102671.19;;;-5.63;100.00
60583;BME280;46415;47.536;19.066;2023-02-10T07:20:35;102665.81;;;-5.40;100.00
60583;BME280;46415;47.536;19.066;2023-02-10T07:23:38;102675.78;;;-5.13;100.00
60583;BME280;46415;47.536;19.066;2023-02-10T07:26:41;102686.25;;;-5.07;100.00
60583;BME280;46415;47.536;19.066;2023-02-10T07:29:44;102684.41;;;-4.95;100.00
60583;BME280;46415;47.536;19.066;2023-02-10T07:32:46;102678.28;;;-4.84;100.00
60583;BME280;46415;47.536;19.066;2023-02-10T07:35:50;102672.38;;;-4.68;100.00
60583;BME280;46415;47.536;19.066;2023-02-10T07:38:52;102661.00;;;-4.60;100.00
60583;BME280;46415;47.536;19.066;2023-02-10T07:41:55;102666.56;;;-4.51;100.00
60583;BME280;46415;47.536;19.066;2023-02-10T07:45:01;102657.50;;;-4.47;100.00
60583;BME280;46415;47.536;19.066;2023-02-10T07:48:04;102661.00;;;-4.29;100.00
60583;BME280;46415;47.536;19.066;2023-02-10T07:51:07;102662.81;;;-4.11;100.00
60583;BME280;46415;47.536;19.066;2023-02-10T07:54:10;102653.72;;;-3.91;100.00
60583;BME280;46415;47.536;19.066;2023-02-10T07:57:13;102662.91;;;-3.77;100.00
60583;BME280;46415;47.536;19.066;2023-02-10T08:00:16;102664.25;;;-3.67;100.00
60583;BME280;46415;47.536;19.066;2023-02-10T08:03:19;102677.59;;;-3.37;100.00
60583;BME280;46415;47.536;19.066;2023-02-10T08:06:23;102676.03;;;-3.17;100.00
60583;BME280;46415;47.536;19.066;2023-02-10T08:09:27;102680.66;;;-2.93;100.00
60583;BME280;46415;47.536;19.066;2023-02-10T08:12:31;102685.56;;;-2.78;100.00
60583;BME280;46415;47.536;19.066;2023-02-10T08:15:35;102687.81;;;-2.66;100.00
60583;BME280;46415;47.536;19.066;2023-02-10T08:18:38;102692.28;;;-2.62;100.00
60583;BME280;46415;47.536;19.066;2023-02-10T08:21:41;102689.62;;;-2.46;100.00
60583;BME280;46415;47.536;19.066;2023-02-10T08:24:44;102692.22;;;-2.27;100.00
60583;BME280;46415;47.536;19.066;2023-02-10T08:27:47;102692.78;;;-2.15;100.00
60583;BME280;46415;47.536;19.066;2023-02-10T08:30:50;102684.22;;;-1.97;100.00
60583;BME280;46415;47.536;19.066;2023-02-10T08:33:53;102685.69;;;-1.83;100.00
60583;BME280;46415;47.536;19.066;2023-02-10T08:36:55;102688.69;;;-1.73;99.29
60583;BME280;46415;47.536;19.066;2023-02-10T08:39:58;102693.78;;;-1.53;98.56
60583;BME280;46415;47.536;19.066;2023-02-10T08:43:01;102690.00;;;-1.42;97.09
60583;BME280;46415;47.536;19.066;2023-02-10T08:46:04;102686.69;;;-1.20;96.81
60583;BME280;46415;47.536;19.066;2023-02-10T08:49:07;102687.72;;;-0.95;95.79
60583;BME280;46415;47.536;19.066;2023-02-10T08:52:10;102685.62;;;-0.84;93.99
60583;BME280;46415;47.536;19.066;2023-02-10T08:55:13;102678.47;;;-0.72;94.49
60583;BME280;46415;47.536;19.066;2023-02-10T08:58:16;102680.72;;;-0.57;93.71
60583;BME280;46415;47.536;19.066;2023-02-10T09:01:23;102683.91;;;-0.41;92.65
60583;BME280;46415;47.536;19.066;2023-02-10T09:04:31;102670.31;;;-0.19;91.05
60583;BME280;46415;47.536;19.066;2023-02-10T09:07:34;102671.28;;;0.09;87.23
60583;BME280;46415;47.536;19.066;2023-02-10T09:10:39;102674.34;;;0.22;85.05
60583;BME280;46415;47.536;19.066;2023-02-10T09:13:42;102672.00;;;0.28;82.94
60583;BME280;46415;47.536;19.066;2023-02-10T09:16:45;102676.81;;;0.45;80.47
60583;BME280;46415;47.536;19.066;2023-02-10T09:19:47;102674.19;;;0.42;80.31
60583;BME280;46415;47.536;19.066;2023-02-10T09:22:50;102678.44;;;0.43;79.75
60583;BME280;46415;47.536;19.066;2023-02-10T09:25:56;102670.72;;;0.65;79.82
60583;BME280;46415;47.536;19.066;2023-02-10T09:28:59;102662.94;;;0.62;77.42
60583;BME280;46415;47.536;19.066;2023-02-10T09:32:01;102662.41;;;0.72;76.13
60583;BME280;46415;47.536;19.066;2023-02-10T09:35:05;102662.00;;;0.85;76.67
60583;BME280;46415;47.536;19.066;2023-02-10T09:38:09;102662.72;;;1.06;76.33
60583;BME280;46415;47.536;19.066;2023-02-10T09:44:32;102672.06;;;1.06;76.05
60583;BME280;46415;47.536;19.066;2023-02-10T09:50:50;102678.34;;;1.44;74.98
60583;BME280;46415;47.536;19.066;2023-02-10T09:53:57;102677.28;;;1.64;73.44
60583;BME280;46415;47.536;19.066;2023-02-10T09:57:05;102670.78;;;1.75;71.68
60583;BME280;46415;47.536;19.066;2023-02-10T10:03:28;102667.44;;;1.78;65.50
60583;BME280;46415;47.536;19.066;2023-02-10T10:06:44;102659.06;;;1.83;62.99
60583;BME280;46415;47.536;19.066;2023-02-10T10:10:41;102662.81;;;1.94;61.70
60583;BME280;46415;47.536;19.066;2023-02-10T10:13:24;102670.31;;;1.88;59.97
60583;BME280;46415;47.536;19.066;2023-02-10T10:23:33;102654.06;;;2.18;58.50
60583;BME280;46415;47.536;19.066;2023-02-10T10:26:48;102657.78;;;2.29;58.15
60583;BME280;46415;47.536;19.066;2023-02-10T10:30:02;102659.41;;;2.27;57.31
60583;BME280;46415;47.536;19.066;2023-02-10T10:33:28;102664.22;;;2.46;58.11
60583;BME280;46415;47.536;19.066;2023-02-10T10:39:42;102651.06;;;2.34;57.72
60583;BME280;46415;47.536;19.066;2023-02-10T10:42:47;102650.41;;;2.41;57.05
60583;BME280;46415;47.536;19.066;2023-02-10T10:45:59;102636.13;;;2.49;58.07
60583;BME280;46415;47.536;19.066;2023-02-10T10:49:05;102632.47;;;2.41;57.55
60583;BME280;46415;47.536;19.066;2023-02-10T10:52:30;102633.63;;;2.52;57.26
60583;BME280;46415;47.536;19.066;2023-02-10T10:55:38;102621.91;;;2.29;56.98
60583;BME280;46415;47.536;19.066;2023-02-10T10:58:42;102613.16;;;2.21;57.03
60583;BME280;46415;47.536;19.066;2023-02-10T11:01:48;102613.56;;;2.36;55.97
60583;BME280;46415;47.536;19.066;2023-02-10T11:05:12;102603.63;;;2.48;56.45
60583;BME280;46415;47.536;19.066;2023-02-10T11:08:32;102602.53;;;2.74;57.09
60583;BME280;46415;47.536;19.066;2023-02-10T11:11:38;102596.75;;;2.81;56.62
60583;BME280;46415;47.536;19.066;2023-02-10T11:14:45;102598.34;;;2.76;55.56
60583;BME280;46415;47.536;19.066;2023-02-10T11:17:48;102590.91;;;2.53;55.27
60583;BME280;46415;47.536;19.066;2023-02-10T11:21:01;102597.69;;;2.85;55.49
60583;BME280;46415;47.536;19.066;2023-02-10T11:24:17;102603.06;;;2.96;53.97
60583;BME280;46415;47.536;19.066;2023-02-10T11:27:22;102603.84;;;2.92;52.97
60583;BME280;46415;47.536;19.066;2023-02-10T11:30:36;102599.44;;;2.87;53.66
60583;BME280;46415;47.536;19.066;2023-02-10T11:33:40;102600.84;;;2.75;54.21
60583;BME280;46415;47.536;19.066;2023-02-10T11:36:43;102597.13;;;2.97;53.94
60583;BME280;46415;47.536;19.066;2023-02-10T11:39:47;102600.38;;;2.90;53.59
60583;BME280;46415;47.536;19.066;2023-02-10T11:42:53;102585.84;;;2.90;52.79
60583;BME280;46415;47.536;19.066;2023-02-10T11:45:59;102577.47;;;2.97;52.36
60583;BME280;46415;47.536;19.066;2023-02-10T11:49:03;102579.31;;;3.03;52.23
60583;BME280;46415;47.536;19.066;2023-02-10T11:52:08;102576.22;;;3.19;51.89
60583;BME280;46415;47.536;19.066;2023-02-10T11:55:14;102562.09;;;3.38;51.71
60583;BME280;46415;47.536;19.066;2023-02-10T11:58:59;102548.56;;;3.46;52.07
60583;BME280;46415;47.536;19.066;2023-02-10T12:02:45;102549.19;;;3.35;51.46
60583;BME280;46415;47.536;19.066;2023-02-10T12:06:08;102544.97;;;3.37;51.98
60583;BME280;46415;47.536;19.066;2023-02-10T12:19:31;102512.78;;;3.99;50.79
60583;BME280;46415;47.536;19.066;2023-02-10T12:26:07;102510.19;;;3.97;50.64
60583;BME280;46415;47.536;19.066;2023-02-10T12:29:29;102496.22;;;3.83;50.59
60583;BME280;46415;47.536;19.066;2023-02-10T12:39:44;102499.69;;;3.85;50.57
60583;BME280;46415;47.536;19.066;2023-02-10T12:52:39;102487.94;;;3.98;50.50
60583;BME280;46415;47.536;19.066;2023-02-10T12:59:04;102489.50;;;3.90;50.94
60583;BME280;46415;47.536;19.066;2023-02-10T13:02:24;102494.16;;;4.10;50.43
60583;BME280;46415;47.536;19.066;2023-02-10T13:05:32;102499.94;;;3.99;50.38
60583;BME280;46415;47.536;19.066;2023-02-10T13:08:43;102502.62;;;4.59;49.91
60583;BME280;46415;47.536;19.066;2023-02-10T13:12:25;102509.41;;;7.05;44.14
60583;BME280;46415;47.536;19.066;2023-02-10T13:15:37;102508.63;;;5.95;44.95
60583;BME280;46415;47.536;19.066;2023-02-10T13:22:21;102501.50;;;4.40;49.34
60583;BME280;46415;47.536;19.066;2023-02-10T13:25:38;102500.38;;;4.25;50.40
60583;BME280;46415;47.536;19.066;2023-02-10T13:32:15;102486.66;;;4.24;50.88
60583;BME280;46415;47.536;19.066;2023-02-10T13:35:23;102484.25;;;4.33;50.54
60583;BME280;46415;47.536;19.066;2023-02-10T13:38:28;102494.56;;;4.36;51.09
60583;BME280;46415;47.536;19.066;2023-02-10T13:41:35;102484.53;;;4.53;50.76
60583;BME280;46415;47.536;19.066;2023-02-10T13:44:44;102478.69;;;4.63;50.25
60583;BME280;46415;47.536;19.066;2023-02-10T13:51:07;102477.13;;;4.74;50.39
60583;BME280;46415;47.536;19.066;2023-02-10T13:54:31;102490.25;;;4.92;49.78
60583;BME280;46415;47.536;19.066;2023-02-10T13:57:36;102484.56;;;5.16;49.42
60583;BME280;46415;47.536;19.066;2023-02-10T14:00:47;102481.13;;;5.17;49.06
60583;BME280;46415;47.536;19.066;2023-02-10T14:03:55;102482.19;;;5.34;48.75
60583;BME280;46415;47.536;19.066;2023-02-10T14:06:58;102478.13;;;5.55;48.70
60583;BME280;46415;47.536;19.066;2023-02-10T14:10:28;102481.63;;;5.61;48.10
60583;BME280;46415;47.536;19.066;2023-02-10T14:13:35;102482.16;;;5.31;48.60
60583;BME280;46415;47.536;19.066;2023-02-10T14:16:39;102480.41;;;5.29;48.74
60583;BME280;46415;47.536;19.066;2023-02-10T14:19:46;102473.06;;;4.91;49.72
60583;BME280;46415;47.536;19.066;2023-02-10T14:22:50;102488.53;;;4.94;49.92
60583;BME280;46415;47.536;19.066;2023-02-10T14:25:59;102490.06;;;4.79;50.16
60583;BME280;46415;47.536;19.066;2023-02-10T14:29:03;102488.03;;;4.57;50.50
60583;BME280;46415;47.536;19.066;2023-02-10T14:32:14;102497.59;;;4.67;51.16
60583;BME280;46415;47.536;19.066;2023-02-10T14:35:21;102484.09;;;4.81;50.62
60583;BME280;46415;47.536;19.066;2023-02-10T14:38:32;102487.03;;;4.48;51.20
60583;BME280;46415;47.536;19.066;2023-02-10T14:41:39;102480.13;;;4.44;51.44
60583;BME280;46415;47.536;19.066;2023-02-10T14:44:45;102476.69;;;4.44;51.89
60583;BME280;46415;47.536;19.066;2023-02-10T14:47:50;102475.69;;;4.34;52.34
60583;BME280;46415;47.536;19.066;2023-02-10T14:51:07;102479.69;;;4.73;52.26
60583;BME280;46415;47.536;19.066;2023-02-10T14:54:22;102483.09;;;5.38;49.90
60583;BME280;46415;47.536;19.066;2023-02-10T14:57:27;102480.00;;;5.69;49.01
60583;BME280;46415;47.536;19.066;2023-02-10T15:00:31;102488.25;;;5.40;49.78
60583;BME280;46415;47.536;19.066;2023-02-10T15:03:35;102476.78;;;5.13;50.14
60583;BME280;46415;47.536;19.066;2023-02-10T15:06:38;102484.75;;;4.68;51.26
60583;BME280;46415;47.536;19.066;2023-02-10T15:09:40;102486.63;;;4.21;53.32
60583;BME280;46415;47.536;19.066;2023-02-10T15:12:44;102488.69;;;3.94;53.59
60583;BME280;46415;47.536;19.066;2023-02-10T15:15:53;102486.66;;;3.76;54.30
60583;BME280;46415;47.536;19.066;2023-02-10T15:18:56;102486.12;;;3.47;55.14
60583;BME280;46415;47.536;19.066;2023-02-10T15:21:59;102484.28;;;3.40;55.74
60583;BME280;46415;47.536;19.066;2023-02-10T15:28:34;102491.50;;;3.16;56.55
60583;BME280;46415;47.536;19.066;2023-02-10T15:31:37;102494.66;;;3.04;57.25
60583;BME280;46415;47.536;19.066;2023-02-10T15:34:48;102488.34;;;2.88;58.02
60583;BME280;46415;47.536;19.066;2023-02-10T15:38:01;102491.47;;;2.75;58.87
60583;BME280;46415;47.536;19.066;2023-02-10T15:41:05;102487.81;;;2.64;59.65
60583;BME280;46415;47.536;19.066;2023-02-10T15:47:21;102486.31;;;2.36;61.00
60583;BME280;46415;47.536;19.066;2023-02-10T15:50:24;102490.56;;;2.36;60.93
60583;BME280;46415;47.536;19.066;2023-02-10T15:53:27;102493.59;;;2.20;61.88
60583;BME280;46415;47.536;19.066;2023-02-10T15:56:30;102487.19;;;2.02;63.03
60583;BME280;46415;47.536;19.066;2023-02-10T15:59:33;102495.00;;;2.09;63.03
60583;BME280;46415;47.536;19.066;2023-02-10T16:02:37;102499.31;;;2.10;63.28
60583;BME280;46415;47.536;19.066;2023-02-10T16:05:41;102501.72;;;2.03;63.77
60583;BME280;46415;47.536;19.066;2023-02-10T16:08:44;102505.25;;;1.76;65.15
60583;BME280;46415;47.536;19.066;2023-02-10T16:11:47;102514.63;;;1.75;66.11
60583;BME280;46415;47.536;19.066;2023-02-10T16:14:50;102524.97;;;1.78;65.60
60583;BME280;46415;47.536;19.066;2023-02-10T16:17:56;102517.78;;;1.65;65.36
60583;BME280;46415;47.536;19.066;2023-02-10T16:21:00;102514.78;;;1.48;66.54
60583;BME280;46415;47.536;19.066;2023-02-10T16:24:04;102515.88;;;1.28;67.50
60583;BME280;46415;47.536;19.066;2023-02-10T16:27:07;102515.09;;;1.01;68.83
60583;BME280;46415;47.536;19.066;2023-02-10T16:30:25;102523.09;;;0.83;70.03
60583;BME280;46415;47.536;19.066;2023-02-10T16:33:28;102521.78;;;0.69;71.98
60583;BME280;46415;47.536;19.066;2023-02-10T16:36:33;102523.72;;;0.76;73.06
60583;BME280;46415;47.536;19.066;2023-02-10T16:39:36;102523.00;;;0.53;74.54
60583;BME280;46415;47.536;19.066;2023-02-10T16:42:39;102520.78;;;0.64;73.86
60583;BME280;46415;47.536;19.066;2023-02-10T16:45:43;102524.97;;;0.62;74.16
60583;BME280;46415;47.536;19.066;2023-02-10T16:48:47;102523.09;;;0.83;73.90
60583;BME280;46415;47.536;19.066;2023-02-10T16:51:49;102524.97;;;0.89;73.22
60583;BME280;46415;47.536;19.066;2023-02-10T16:54:53;102526.84;;;0.94;73.29
60583;BME280;46415;47.536;19.066;2023-02-10T16:57:56;102521.91;;;1.02;73.45
60583;BME280;46415;47.536;19.066;2023-02-10T17:00:59;102525.03;;;0.92;73.37
60583;BME280;46415;47.536;19.066;2023-02-10T17:04:02;102525.59;;;0.81;74.20
60583;BME280;46415;47.536;19.066;2023-02-10T17:07:05;102526.91;;;0.69;74.51
60583;BME280;46415;47.536;19.066;2023-02-10T17:10:13;102519.22;;;0.42;75.95
60583;BME280;46415;47.536;19.066;2023-02-10T17:13:17;102527.94;;;0.22;77.01
60583;BME280;46415;47.536;19.066;2023-02-10T17:16:30;102533.28;;;0.04;78.32
60583;BME280;46415;47.536;19.066;2023-02-10T17:19:37;102534.56;;;-0.09;80.56
60583;BME280;46415;47.536;19.066;2023-02-10T17:22:40;102535.06;;;-0.19;81.11
60583;BME280;46415;47.536;19.066;2023-02-10T17:25:46;102538.44;;;-0.20;80.96